Time;durP1;ratioP1;P1;durP2;ratioP2;P2;SDS_P1;SDS_P2;PMS_P1;PMS_P2;Temp;Humidity;BMP_temperature;BMP_pressure;BME280_temperature;BME280_humidity;BME280_pressure;Samples;Min_cycle;Max_cycle;Signal;HPM_P1;HPM_P2
2021/12/19 00:00:14;;;;;;;11.38;6.72;;;7.20;99.90;;;;;;5095729;28;20036;-70
2021/12/19 00:03:07;;;;;;;12.77;6.45;;;7.20;99.90;;;;;;5095929;28;20047;-71
2021/12/19 00:08:30;;;;;;;12.82;6.63;;;7.20;99.90;;;;;;5095522;28;20104;-71
2021/12/19 00:10:57;;;;;;;12.68;6.28;;;7.20;99.90;;;;;;5095853;28;20100;-70
2021/12/19 00:13:25;;;;;;;11.95;6.65;;;7.20;99.90;;;;;;5095461;28;20170;-71
2021/12/19 00:15:51;;;;;;;9.35;5.25;;;7.20;99.90;;;;;;5095476;28;20040;-71
2021/12/19 00:18:17;;;;;;;8.98;5.05;;;7.20;99.90;;;;;;5094854;28;20353;-71
2021/12/19 00:20:43;;;;;;;9.40;4.45;;;7.20;99.90;;;;;;5095491;28;20073;-71
2021/12/19 00:23:09;;;;;;;9.13;4.60;;;7.20;99.90;;;;;;5095456;28;20453;-70
2021/12/19 00:25:34;;;;;;;7.78;4.22;;;7.20;99.90;;;;;;5095352;28;20039;-70
2021/12/19 00:28:00;;;;;;;9.82;4.20;;;7.20;99.90;;;;;;5094819;28;20040;-71
2021/12/19 00:30:26;;;;;;;8.65;4.32;;;7.20;99.90;;;;;;5093403;28;20138;-71
2021/12/19 00:32:51;;;;;;;8.63;4.35;;;7.20;99.90;;;;;;5095268;28;20093;-71
2021/12/19 00:35:17;;;;;;;8.00;4.45;;;7.20;99.90;;;;;;5095212;28;20480;-71
2021/12/19 00:37:43;;;;;;;8.93;4.57;;;7.20;99.90;;;;;;5094149;28;20052;-71
2021/12/19 00:40:10;;;;;;;10.15;4.72;;;7.20;99.90;;;;;;5094717;28;20059;-71
2021/12/19 00:42:37;;;;;;;9.95;5.20;;;7.20;99.90;;;;;;5095321;28;20040;-70
2021/12/19 00:45:15;;;;;;;11.65;5.05;;;7.20;99.90;;;;;;5094172;28;20048;-71
2021/12/19 00:47:44;;;;;;;10.38;5.07;;;7.30;99.90;;;;;;5094758;28;20047;-71
2021/12/19 00:50:10;;;;;;;10.88;4.97;;;7.30;99.90;;;;;;5094493;28;20030;-71
2021/12/19 00:52:36;;;;;;;10.70;5.35;;;7.30;99.90;;;;;;5094890;28;20058;-71
2021/12/19 00:55:03;;;;;;;10.35;4.97;;;7.30;99.90;;;;;;5094239;28;20036;-71
2021/12/19 00:57:29;;;;;;;10.75;5.40;;;7.30;99.90;;;;;;5094975;28;20044;-72
2021/12/19 00:59:54;;;;;;;10.23;4.65;;;7.20;99.90;;;;;;5078691;28;20496;-71
2021/12/19 01:02:20;;;;;;;10.98;5.00;;;7.30;99.90;;;;;;5074296;28;20036;-71
2021/12/19 01:04:46;;;;;;;10.95;5.07;;;7.30;99.90;;;;;;5074331;28;20040;-71
2021/12/19 01:07:11;;;;;;;12.13;4.78;;;7.20;99.90;;;;;;5074264;28;20032;-71
2021/12/19 01:09:37;;;;;;;11.25;5.13;;;7.30;99.90;;;;;;5090146;28;20039;-71
2021/12/19 01:12:04;;;;;;;10.15;4.97;;;7.20;99.90;;;;;;5094814;28;20093;-71
2021/12/19 01:14:30;;;;;;;10.00;4.85;;;7.20;99.90;;;;;;5094355;28;20050;-71
2021/12/19 01:16:55;;;;;;;10.27;4.90;;;7.20;99.90;;;;;;5094497;28;20044;-71
2021/12/19 01:19:23;;;;;;;10.48;4.30;;;7.30;99.90;;;;;;5093707;28;20490;-71
2021/12/19 01:21:50;;;;;;;11.10;4.82;;;7.30;99.90;;;;;;5093987;28;20477;-71
2021/12/19 01:24:16;;;;;;;10.18;4.88;;;7.30;99.90;;;;;;5093324;28;20040;-71
2021/12/19 01:26:42;;;;;;;10.32;5.13;;;7.20;99.90;;;;;;5094294;28;20324;-71
2021/12/19 01:29:12;;;;;;;12.02;5.43;;;7.30;99.90;;;;;;5093630;28;20047;-71
2021/12/19 01:31:37;;;;;;;9.57;4.97;;;7.30;99.90;;;;;;5094128;28;20104;-71
2021/12/19 01:34:03;;;;;;;8.60;4.55;;;7.30;99.90;;;;;;5093940;28;20040;-71
2021/12/19 01:36:29;;;;;;;8.85;4.53;;;7.30;99.90;;;;;;5094177;28;20064;-71
2021/12/19 01:38:55;;;;;;;9.13;4.50;;;7.30;99.90;;;;;;5092289;28;20044;-71
2021/12/19 01:41:20;;;;;;;10.32;4.55;;;7.30;99.90;;;;;;5093636;28;20036;-71
2021/12/19 01:43:46;;;;;;;9.57;4.38;;;7.30;99.90;;;;;;5094067;28;20036;-71
2021/12/19 01:46:13;;;;;;;10.77;4.47;;;7.30;99.90;;;;;;5093601;28;20028;-71
2021/12/19 01:48:38;;;;;;;10.02;4.25;;;7.30;99.90;;;;;;5091934;28;20389;-71
2021/12/19 01:51:05;;;;;;;9.25;3.72;;;7.30;99.90;;;;;;5093765;28;20028;-71
2021/12/19 01:53:30;;;;;;;7.45;4.03;;;7.30;99.90;;;;;;5093912;28;20036;-72
2021/12/19 01:55:56;;;;;;;9.38;3.92;;;7.30;99.90;;;;;;5092500;28;20040;-71
2021/12/19 01:58:22;;;;;;;7.05;3.50;;;7.30;99.90;;;;;;5090439;28;20035;-71
2021/12/19 02:00:53;;;;;;;7.57;3.67;;;7.30;99.90;;;;;;5073357;28;20060;-71
2021/12/19 02:03:20;;;;;;;7.95;3.80;;;7.30;99.90;;;;;;5073534;28;20052;-71
2021/12/19 02:05:46;;;;;;;7.78;3.67;;;7.30;99.90;;;;;;5073253;28;20041;-71
2021/12/19 02:08:12;;;;;;;8.05;4.00;;;7.30;99.90;;;;;;5076578;28;21102;-71
2021/12/19 02:10:39;;;;;;;7.53;3.83;;;7.30;99.90;;;;;;5093701;28;20024;-71
2021/12/19 02:13:07;;;;;;;8.75;3.88;;;7.20;99.90;;;;;;5093895;28;20047;-71
2021/12/19 02:15:34;;;;;;;7.72;3.88;;;7.30;99.90;;;;;;5093283;28;20035;-71
2021/12/19 02:18:05;;;;;;;7.18;3.30;;;7.20;99.90;;;;;;5093096;28;20047;-71
2021/12/19 02:20:36;;;;;;;5.70;2.95;;;7.20;99.90;;;;;;5093721;28;20043;-71
2021/12/19 02:23:03;;;;;;;4.43;2.30;;;7.30;99.90;;;;;;5093206;28;20056;-71
2021/12/19 02:25:29;;;;;;;4.15;2.28;;;7.20;99.90;;;;;;5093565;28;20063;-71
2021/12/19 02:27:55;;;;;;;3.47;2.00;;;7.20;99.90;;;;;;5093483;28;20051;-71
2021/12/19 02:30:21;;;;;;;5.07;2.22;;;7.20;99.90;;;;;;5092964;28;20040;-71
2021/12/19 02:32:47;;;;;;;5.30;1.95;;;7.30;99.90;;;;;;5093239;28;20075;-71
2021/12/19 02:35:19;;;;;;;4.43;2.03;;;7.30;99.90;;;;;;5093260;28;20067;-71
2021/12/19 02:48:31;;;;;;;3.03;1.80;;;7.20;99.90;;;;;;5092745;28;20072;-71
2021/12/19 02:50:58;;;;;;;4.25;2.10;;;7.20;99.90;;;;;;5093373;28;20117;-71
2021/12/19 02:53:28;;;;;;;6.15;2.10;;;7.20;99.90;;;;;;5095863;28;20044;-72
2021/12/19 02:55:54;;;;;;;4.10;1.80;;;7.20;99.90;;;;;;5097489;28;20044;-72
2021/12/19 02:58:19;;;;;;;4.85;1.83;;;7.20;99.90;;;;;;5096422;28;20046;-72
2021/12/19 03:00:45;;;;;;;5.85;2.20;;;7.10;99.90;;;;;;5096948;28;20040;-71
2021/12/19 03:03:11;;;;;;;4.50;1.90;;;7.10;99.90;;;;;;5097098;28;20108;-72
2021/12/19 03:05:37;;;;;;;3.75;1.80;;;7.10;99.90;;;;;;5097095;28;20394;-72
2021/12/19 03:08:04;;;;;;;5.65;1.88;;;7.10;99.90;;;;;;5095142;28;20055;-72
2021/12/19 03:13:24;;;;;;;4.22;1.95;;;7.10;99.90;;;;;;5097050;28;20115;-72
2021/12/19 03:18:34;;;;;;;5.45;2.08;;;7.20;99.90;;;;;;5096369;28;20044;-72
2021/12/19 03:21:00;;;;;;;4.55;1.95;;;7.10;99.90;;;;;;5096495;28;20055;-72
2021/12/19 03:23:26;;;;;;;3.50;1.50;;;7.10;99.90;;;;;;5096282;28;20510;-72
2021/12/19 03:25:52;;;;;;;3.15;1.52;;;7.10;99.90;;;;;;5096217;28;20052;-72
2021/12/19 03:28:18;;;;;;;2.67;1.35;;;7.10;99.90;;;;;;5095996;28;20043;-72
2021/12/19 03:30:47;;;;;;;1.20;0.90;;;7.10;99.90;;;;;;5096551;28;20043;-72
2021/12/19 03:33:13;;;;;;;1.55;0.90;;;7.10;99.90;;;;;;5096675;28;20040;-70
2021/12/19 03:35:39;;;;;;;1.33;0.95;;;7.00;99.90;;;;;;5096314;28;20112;-70
2021/12/19 03:38:08;;;;;;;2.47;1.13;;;7.00;99.90;;;;;;5095994;28;20072;-70
2021/12/19 03:40:39;;;;;;;2.63;1.30;;;7.00;99.90;;;;;;5096467;28;20036;-70
2021/12/19 03:43:08;;;;;;;3.15;1.20;;;6.90;99.90;;;;;;5096462;28;20058;-72
2021/12/19 03:45:35;;;;;;;4.10;1.70;;;6.90;99.90;;;;;;5094876;28;20051;-72
2021/12/19 03:48:03;;;;;;;2.55;1.23;;;6.90;99.90;;;;;;5095350;28;20498;-72
2021/12/19 03:50:31;;;;;;;3.60;1.33;;;6.90;99.90;;;;;;5095988;28;20369;-72
2021/12/19 03:52:56;;;;;;;3.72;1.20;;;6.90;99.90;;;;;;5096260;28;20048;-70
2021/12/19 03:55:24;;;;;;;2.40;1.17;;;6.90;99.90;;;;;;5095909;28;20055;-70
2021/12/19 03:57:50;;;;;;;2.97;1.48;;;6.90;99.90;;;;;;5095649;28;20131;-71
2021/12/19 04:00:23;;;;;;;1.65;1.08;;;7.00;99.90;;;;;;5095968;28;20044;-70
2021/12/19 04:02:52;;;;;;;2.05;1.15;;;7.00;99.90;;;;;;5095634;28;20082;-72
2021/12/19 04:05:18;;;;;;;4.35;1.60;;;7.00;99.90;;;;;;5095613;28;20100;-72
2021/12/19 04:07:44;;;;;;;2.85;1.67;;;6.90;99.90;;;;;;5095706;28;20036;-71
2021/12/19 04:10:10;;;;;;;2.10;1.08;;;6.90;99.90;;;;;;5095014;28;20040;-71
2021/12/19 04:12:35;;;;;;;2.65;1.05;;;6.90;99.90;;;;;;5095775;28;20100;-71
2021/12/19 04:15:03;;;;;;;1.70;0.90;;;6.90;99.90;;;;;;5095797;28;20032;-71
2021/12/19 04:17:29;;;;;;;1.20;0.80;;;6.90;99.90;;;;;;5095443;28;20052;-71
2021/12/19 04:19:54;;;;;;;0.70;0.60;;;6.80;99.90;;;;;;5095160;28;20114;-71
2021/12/19 04:22:20;;;;;;;1.60;1.00;;;6.90;99.90;;;;;;5095055;28;20052;-71
2021/12/19 04:24:46;;;;;;;2.03;1.20;;;6.90;99.90;;;;;;5095537;28;20480;-71
2021/12/19 04:27:11;;;;;;;1.95;1.00;;;6.80;99.90;;;;;;5095366;28;20365;-71
2021/12/19 04:29:37;;;;;;;2.20;1.20;;;6.80;99.90;;;;;;5094825;28;20401;-72
2021/12/19 04:32:03;;;;;;;2.33;1.10;;;6.80;99.90;;;;;;5095325;28;20064;-72
2021/12/19 04:34:29;;;;;;;2.10;0.82;;;6.70;99.90;;;;;;5095115;28;20457;-72
2021/12/19 04:37:02;;;;;;;2.13;1.10;;;6.70;99.90;;;;;;5095174;28;20119;-72
2021/12/19 04:50:56;;;;;;;1.15;0.77;;;6.70;99.90;;;;;;5094932;28;20121;-71
2021/12/19 04:53:00;;;;;;;1.65;0.80;;;6.70;99.90;;;;;;5095261;28;20040;-71
2021/12/19 04:55:44;;;;;;;1.40;1.00;;;6.70;99.90;;;;;;5094502;28;20480;-71
2021/12/19 04:58:22;;;;;;;2.47;1.20;;;6.70;99.90;;;;;;5093391;28;20067;-71
2021/12/19 05:03:32;;;;;;;1.77;1.27;;;6.70;99.90;;;;;;5094659;28;20189;-71
2021/12/19 05:14:35;;;;;;;;;;;6.80;99.90;;;;;;5094804;28;20047;-72
2021/12/19 05:16:51;;;;;;;1.83;1.00;;;6.80;99.90;;;;;;5091850;28;20069;-72
2021/12/19 05:21:43;;;;;;;3.45;1.23;;;6.80;99.90;;;;;;5094067;28;20138;-72
2021/12/19 05:24:21;;;;;;;1.45;0.90;;;6.80;99.90;;;;;;5094367;28;20051;-72
2021/12/19 05:26:47;;;;;;;1.48;0.80;;;6.80;99.90;;;;;;5094094;28;20457;-72
2021/12/19 05:29:16;;;;;;;1.92;0.90;;;6.80;99.90;;;;;;5093788;28;20046;-74
2021/12/19 05:31:43;;;;;;;1.70;1.05;;;6.80;99.90;;;;;;5094053;28;20119;-72
2021/12/19 05:34:09;;;;;;;1.95;1.02;;;6.80;99.90;;;;;;5093996;28;20434;-72
2021/12/19 05:47:21;;;;;;;3.03;1.20;;;6.70;99.90;;;;;;5093710;28;20040;-71
2021/12/19 05:49:47;;;;;;;3.45;1.38;;;6.60;99.90;;;;;;5093543;28;20072;-72
2021/12/19 05:52:12;;;;;;;3.03;1.65;;;6.60;99.90;;;;;;5093931;28;20128;-72
2021/12/19 05:54:38;;;;;;;4.05;1.77;;;6.60;99.90;;;;;;5093805;28;20063;-71
2021/12/19 05:57:04;;;;;;;5.07;1.90;;;6.60;99.90;;;;;;5093561;28;20480;-72
2021/12/19 05:59:29;;;;;;;4.32;1.70;;;6.60;99.90;;;;;;5092859;28;20043;-71
2021/12/19 06:01:55;;;;;;;5.18;2.17;;;6.60;99.90;;;;;;5093727;28;20040;-72
2021/12/19 06:04:21;;;;;;;7.10;2.00;;;6.60;99.90;;;;;;5093667;28;20399;-71
2021/12/19 06:06:47;;;;;;;4.80;2.10;;;6.60;99.90;;;;;;5093598;28;20127;-71
2021/12/19 06:09:13;;;;;;;8.60;2.45;;;6.70;99.90;;;;;;5093203;28;20035;-71
2021/12/19 06:11:38;;;;;;;7.63;2.53;;;6.70;99.90;;;;;;5093479;28;20197;-71
2021/12/19 06:14:04;;;;;;;8.60;3.17;;;6.70;99.90;;;;;;5093464;28;20361;-72
2021/12/19 06:16:30;;;;;;;5.43;2.78;;;6.70;99.90;;;;;;5093145;28;20074;-71
2021/12/19 06:18:56;;;;;;;7.07;3.65;;;6.70;99.90;;;;;;5093074;28;20043;-72
2021/12/19 06:21:22;;;;;;;8.30;3.22;;;6.70;99.90;;;;;;5093229;28;20047;-72
2021/12/19 06:23:48;;;;;;;8.00;3.22;;;6.70;99.90;;;;;;5093581;28;20048;-71
2021/12/19 06:26:13;;;;;;;7.75;3.78;;;6.80;99.90;;;;;;5093541;28;20044;-71
2021/12/19 06:28:39;;;;;;;10.13;4.18;;;6.80;99.90;;;;;;5096900;28;20078;-71
2021/12/19 06:31:06;;;;;;;7.72;3.88;;;6.80;99.90;;;;;;5097201;28;20036;-71
2021/12/19 06:33:32;;;;;;;8.48;3.90;;;6.80;99.90;;;;;;5097395;28;20391;-71
2021/12/19 06:35:57;;;;;;;12.20;4.20;;;6.80;99.90;;;;;;5097469;28;20147;-71
2021/12/19 06:38:23;;;;;;;11.18;4.47;;;6.80;99.90;;;;;;5097002;28;20093;-71
2021/12/19 06:40:49;;;;;;;9.90;4.20;;;6.80;99.90;;;;;;5097506;28;20090;-71
2021/12/19 06:43:14;;;;;;;8.48;4.50;;;6.80;99.90;;;;;;5097466;28;20036;-71
2021/12/19 06:45:40;;;;;;;10.00;4.13;;;6.90;99.90;;;;;;5097321;28;20089;-71
2021/12/19 06:48:06;;;;;;;15.02;5.20;;;6.80;99.90;;;;;;5097516;28;20040;-71
2021/12/19 06:50:31;;;;;;;13.25;5.30;;;6.80;99.90;;;;;;5099521;28;20516;-71
2021/12/19 06:52:57;;;;;;;11.93;5.25;;;6.90;99.90;;;;;;5099647;28;20047;-70
2021/12/19 06:55:23;;;;;;;13.65;5.70;;;6.90;99.90;;;;;;5097596;28;20040;-70
2021/12/19 06:57:48;;;;;;;12.23;5.88;;;6.90;99.90;;;;;;5096862;28;20455;-71
2021/12/19 07:00:20;;;;;;;16.27;6.20;;;6.90;99.90;;;;;;5096870;28;20036;-71
2021/12/19 07:02:46;;;;;;;14.30;6.50;;;6.90;99.90;;;;;;5096931;28;20036;-71
2021/12/19 07:05:11;;;;;;;15.43;6.68;;;6.90;99.90;;;;;;5096855;28;20407;-71
2021/12/19 07:07:37;;;;;;;15.10;6.60;;;6.90;99.90;;;;;;5096462;28;20073;-71
2021/12/19 07:10:05;;;;;;;11.25;6.03;;;7.00;99.90;;;;;;5096972;28;20072;-71
2021/12/19 07:12:31;;;;;;;16.40;6.45;;;7.00;99.90;;;;;;5095904;28;20360;-71
2021/12/19 07:14:57;;;;;;;17.60;6.45;;;7.00;99.90;;;;;;5096677;28;20101;-71
2021/12/19 07:17:23;;;;;;;17.63;7.22;;;7.00;99.90;;;;;;5096628;28;20100;-71
2021/12/19 07:19:50;;;;;;;16.75;7.40;;;7.00;99.90;;;;;;5096244;28;20043;-72
2021/12/19 07:22:16;;;;;;;21.02;7.45;;;7.10;99.90;;;;;;5095320;28;20415;-72
2021/12/19 07:24:42;;;;;;;18.20;6.85;;;7.00;99.90;;;;;;5096569;28;20067;-72
2021/12/19 07:27:07;;;;;;;20.88;8.05;;;7.10;99.90;;;;;;5092625;28;20454;-72
2021/12/19 07:29:34;;;;;;;22.33;8.45;;;7.10;99.90;;;;;;5077323;28;20119;-72
2021/12/19 07:31:59;;;;;;;22.70;7.80;;;7.10;99.90;;;;;;5074414;28;20469;-72
2021/12/19 07:34:32;;;;;;;17.60;7.53;;;7.10;99.90;;;;;;5075488;28;20040;-72
2021/12/19 07:36:58;;;;;;;16.13;6.30;;;7.10;99.90;;;;;;5075930;28;20064;-73
2021/12/19 07:39:54;;;;;;;17.45;6.28;;;7.10;99.90;;;;;;5081141;28;20043;-73
2021/12/19 07:42:11;;;;;;;18.10;5.40;;;7.10;99.90;;;;;;5074814;28;20036;-72
2021/12/19 07:44:38;;;;;;;17.27;4.85;;;7.20;99.90;;;;;;5077465;28;20035;-72
2021/12/19 07:47:08;;;;;;;9.55;3.78;;;7.20;99.90;;;;;;5076287;28;20047;-71
2021/12/19 07:49:34;;;;;;;13.48;4.38;;;7.10;99.90;;;;;;5077174;28;20108;-72
2021/12/19 07:52:00;;;;;;;11.95;4.28;;;7.10;99.90;;;;;;5074112;28;20528;-71
2021/12/19 07:54:26;;;;;;;13.95;4.07;;;7.20;99.90;;;;;;5075445;28;20036;-72
2021/12/19 07:56:52;;;;;;;11.40;3.47;;;7.10;99.90;;;;;;5075083;28;20357;-71
2021/12/19 07:59:18;;;;;;;10.32;3.47;;;7.20;99.90;;;;;;5074720;28;20041;-72
2021/12/19 08:01:44;;;;;;;12.30;3.67;;;7.10;99.90;;;;;;5073843;28;20085;-72
2021/12/19 08:04:09;;;;;;;13.90;4.32;;;7.20;99.90;;;;;;5077050;28;20341;-71
2021/12/19 08:06:35;;;;;;;14.32;4.47;;;7.20;99.90;;;;;;5074845;28;20531;-71
2021/12/19 08:09:08;;;;;;;19.63;4.60;;;7.20;99.90;;;;;;5079073;28;20032;-72
2021/12/19 08:11:40;;;;;;;13.52;4.38;;;7.20;99.90;;;;;;5080711;28;20071;-72
2021/12/19 08:14:07;;;;;;;13.43;4.90;;;7.20;99.90;;;;;;5075383;28;20039;-72
2021/12/19 08:16:32;;;;;;;16.27;5.53;;;7.20;99.90;;;;;;5083376;28;20082;-72
2021/12/19 08:18:58;;;;;;;18.90;5.18;;;7.20;99.90;;;;;;5076328;28;20404;-72
2021/12/19 08:21:24;;;;;;;13.55;5.80;;;7.20;99.90;;;;;;5079243;28;20075;-72
2021/12/19 08:23:50;;;;;;;17.45;6.88;;;7.20;99.90;;;;;;5078030;28;20109;-71
2021/12/19 08:26:15;;;;;;;15.55;6.57;;;7.20;99.90;;;;;;5080105;28;20366;-70
2021/12/19 08:28:41;;;;;;;16.58;7.07;;;7.20;99.90;;;;;;5081837;28;20037;-70
2021/12/19 08:31:07;;;;;;;15.23;6.35;;;7.10;99.90;;;;;;5078186;28;20067;-69
2021/12/19 08:33:33;;;;;;;20.45;6.72;;;7.20;99.90;;;;;;5075000;28;20073;-69
2021/12/19 08:36:01;;;;;;;17.83;6.30;;;7.10;99.90;;;;;;5080996;28;20081;-69
2021/12/19 08:38:27;;;;;;;14.32;6.03;;;7.10;99.90;;;;;;5089963;28;20047;-68
2021/12/19 08:40:53;;;;;;;13.30;4.93;;;7.10;99.90;;;;;;5095475;28;20047;-72
2021/12/19 08:43:19;;;;;;;14.40;5.15;;;7.10;99.90;;;;;;5093830;28;20048;-73
2021/12/19 08:45:46;;;;;;;14.18;4.68;;;7.20;99.90;;;;;;5093925;28;20036;-72
2021/12/19 08:48:12;;;;;;;16.17;5.00;;;7.10;99.90;;;;;;5094246;28;20457;-72
2021/12/19 08:50:38;;;;;;;15.20;4.97;;;7.10;99.90;;;;;;5093979;28;20042;-73
2021/12/19 08:53:03;;;;;;;15.65;4.78;;;7.20;99.90;;;;;;5095087;28;20369;-66
2021/12/19 08:55:29;;;;;;;10.90;3.55;;;7.20;99.90;;;;;;5094928;28;20036;-72
2021/12/19 08:57:55;;;;;;;12.23;3.17;;;7.20;99.90;;;;;;5094303;28;20097;-71
2021/12/19 09:00:21;;;;;;;11.60;3.85;;;7.20;99.90;;;;;;5093791;28;20036;-72
2021/12/19 09:02:51;;;;;;;10.70;3.70;;;7.20;99.90;;;;;;5094669;28;20036;-71
2021/12/19 09:05:19;;;;;;;9.88;3.80;;;7.20;99.90;;;;;;5094827;28;20036;-71
2021/12/19 09:07:44;;;;;;;10.05;3.55;;;7.20;99.90;;;;;;5094474;28;20105;-67
2021/12/19 09:10:11;;;;;;;11.43;3.78;;;7.20;99.90;;;;;;5078959;28;20032;-72
2021/12/19 09:12:37;;;;;;;9.40;4.10;;;7.20;99.90;;;;;;5072897;28;20029;-71
2021/12/19 09:15:04;;;;;;;11.82;4.43;;;7.20;99.90;;;;;;5073370;28;20151;-72
2021/12/19 09:17:30;;;;;;;11.80;4.22;;;7.20;99.90;;;;;;5071996;28;20043;-72
2021/12/19 09:19:56;;;;;;;13.63;4.57;;;7.20;99.90;;;;;;5076534;28;20051;-71
2021/12/19 09:22:21;;;;;;;12.00;4.28;;;7.20;99.90;;;;;;5073288;28;20051;-71
2021/12/19 09:24:47;;;;;;;10.82;3.78;;;7.20;99.90;;;;;;5074727;28;20040;-71
2021/12/19 09:27:13;;;;;;;13.18;5.03;;;7.20;99.90;;;;;;5089722;28;20089;-72
2021/12/19 09:29:39;;;;;;;10.68;3.95;;;7.20;99.90;;;;;;5093571;28;20109;-72
2021/12/19 09:32:05;;;;;;;14.02;4.00;;;7.20;99.90;;;;;;5092557;28;20044;-71
2021/12/19 09:34:31;;;;;;;12.80;4.18;;;7.20;99.90;;;;;;5091922;28;20032;-71
2021/12/19 09:36:57;;;;;;;16.08;4.80;;;7.20;99.90;;;;;;5092365;28;20462;-71
2021/12/19 09:39:24;;;;;;;14.68;4.65;;;7.20;99.90;;;;;;5092105;28;20331;-71
2021/12/19 09:41:56;;;;;;;10.98;3.78;;;7.20;99.90;;;;;;5092499;28;20039;-71
2021/12/19 09:44:22;;;;;;;12.98;3.78;;;7.20;99.90;;;;;;5085958;28;20044;-72
2021/12/19 09:46:50;;;;;;;11.95;4.05;;;7.20;99.90;;;;;;5074035;28;20024;-71
2021/12/19 09:49:18;;;;;;;13.50;4.03;;;7.20;99.90;;;;;;5083229;28;20383;-71
2021/12/19 09:51:45;;;;;;;14.25;3.80;;;7.30;99.90;;;;;;5094057;28;20113;-71
2021/12/19 09:54:11;;;;;;;13.48;4.40;;;7.30;99.90;;;;;;5089968;28;20193;-71
2021/12/19 09:56:38;;;;;;;13.02;4.20;;;7.30;99.90;;;;;;5073671;28;20115;-71
2021/12/19 09:59:15;;;;;;;11.55;4.47;;;7.30;99.90;;;;;;5080407;28;20044;-71
2021/12/19 10:01:42;;;;;;;14.07;4.32;;;7.30;99.90;;;;;;5093480;28;20128;-71
2021/12/19 10:04:27;;;;;;;11.63;5.55;;;7.40;99.90;;;;;;5093644;28;20036;-71
2021/12/19 10:07:13;;;;;;;12.90;4.10;;;7.40;99.90;;;;;;5093769;28;20048;-71
2021/12/19 10:09:59;;;;;;;12.90;4.38;;;7.40;99.90;;;;;;5093225;28;20469;-71
2021/12/19 10:15:02;;;;;;;15.70;4.82;;;7.40;99.90;;;;;;5080930;28;20076;-72
2021/12/19 10:17:28;;;;;;;12.60;3.90;;;7.40;99.90;;;;;;5072399;28;20086;-71
2021/12/19 10:19:57;;;;;;;12.13;4.40;;;7.40;99.90;;;;;;5086786;28;20048;-71
2021/12/19 10:22:27;;;;;;;15.73;4.13;;;7.40;99.90;;;;;;5092220;28;20143;-72
2021/12/19 10:24:56;;;;;;;12.75;3.47;;;7.50;99.90;;;;;;5092376;28;20465;-71
2021/12/19 10:27:39;;;;;;;13.52;3.85;;;7.50;99.90;;;;;;5090275;28;20059;-69
2021/12/19 10:30:15;;;;;;;10.40;3.88;;;7.50;99.90;;;;;;5073536;28;20037;-68
2021/12/19 10:33:10;;;;;;;22.20;4.47;;;7.50;99.90;;;;;;5089632;28;20089;-68
2021/12/19 10:35:46;;;;;;;17.27;4.60;;;7.50;99.90;;;;;;5079207;28;20044;-69
2021/12/19 10:38:15;;;;;;;12.98;4.88;;;7.50;99.90;;;;;;5069903;28;20044;-70
2021/12/19 10:40:46;;;;;;;13.88;3.80;;;7.50;99.90;;;;;;5071893;28;20051;-68
2021/12/19 10:43:16;;;;;;;12.32;3.58;;;7.50;99.90;;;;;;5070810;28;20467;-72
2021/12/19 10:45:54;;;;;;;16.75;4.22;;;7.50;99.90;;;;;;5073400;28;20468;-72
2021/12/19 10:48:38;;;;;;;14.45;4.47;;;7.50;99.90;;;;;;5072113;28;20106;-72
2021/12/19 10:51:07;;;;;;;12.73;4.00;;;7.50;99.90;;;;;;5075304;28;20028;-72
2021/12/19 10:53:45;;;;;;;15.85;4.07;;;7.60;99.90;;;;;;5092154;28;20036;-73
2021/12/19 10:56:17;;;;;;;11.43;3.85;;;7.60;99.90;;;;;;5086528;28;20045;-72
2021/12/19 10:58:55;;;;;;;13.73;4.32;;;7.60;99.90;;;;;;5072888;28;20112;-73
2021/12/19 11:01:34;;;;;;;13.85;4.00;;;7.60;99.90;;;;;;5072449;28;20040;-71
2021/12/19 11:04:07;;;;;;;11.48;3.50;;;7.60;99.90;;;;;;5071863;28;20138;-71
2021/12/19 11:06:38;;;;;;;11.07;4.00;;;7.60;99.90;;;;;;5073270;28;20048;-71
2021/12/19 11:09:11;;;;;;;13.02;3.70;;;7.60;99.90;;;;;;5079046;28;20186;-72
2021/12/19 11:12:00;;;;;;;16.05;3.60;;;7.60;99.90;;;;;;5093025;28;20393;-72
2021/12/19 11:14:39;;;;;;;16.02;4.72;;;7.60;99.90;;;;;;5096063;28;20036;-71
2021/12/19 11:17:21;;;;;;;17.52;3.80;;;7.60;99.90;;;;;;5096542;28;20047;-71
2021/12/19 11:19:55;;;;;;;12.23;3.78;;;7.70;99.90;;;;;;5086286;28;20033;-72
2021/12/19 11:22:23;;;;;;;;;;;7.70;99.90;;;;;;5076459;28;20079;-71
2021/12/19 11:25:05;;;;;;;11.85;3.70;;;7.60;99.90;;;;;;5076397;28;19920;-72
2021/12/19 11:27:33;;;;;;;10.35;3.70;;;7.60;99.90;;;;;;5083039;28;20079;-69
2021/12/19 11:30:00;;;;;;;13.30;3.72;;;7.70;99.90;;;;;;5090000;28;20376;-72
2021/12/19 11:32:42;;;;;;;14.00;3.65;;;7.70;99.90;;;;;;5096521;28;20107;-73
2021/12/19 11:35:12;;;;;;;14.23;5.20;;;7.70;99.90;;;;;;5096658;28;20052;-72
2021/12/19 11:37:45;;;;;;;12.00;4.30;;;7.60;99.90;;;;;;5095932;28;20055;-73
2021/12/19 11:40:16;;;;;;;16.17;4.15;;;7.70;99.90;;;;;;5096387;28;20050;-71
2021/12/19 11:42:42;;;;;;;16.10;3.83;;;7.70;99.90;;;;;;5087193;28;20045;-72
2021/12/19 11:47:47;;;;;;;16.75;4.38;;;7.80;99.90;;;;;;5095305;28;20484;-72
2021/12/19 11:50:21;;;;;;;18.92;3.95;;;7.80;99.90;;;;;;5083989;28;20044;-72
2021/12/19 11:52:48;;;;;;;13.27;3.55;;;7.80;99.90;;;;;;5076141;28;20044;-72
2021/12/19 11:55:14;;;;;;;12.60;4.20;;;7.80;99.90;;;;;;5075436;28;20032;-71
2021/12/19 11:58:03;;;;;;;13.65;3.83;;;7.80;99.90;;;;;;5072467;28;20060;-71
2021/12/19 12:00:33;;;;;;;12.60;4.25;;;7.90;99.90;;;;;;5092401;28;20050;-71
2021/12/19 12:03:14;;;;;;;15.23;4.32;;;7.80;99.90;;;;;;5095296;28;20366;-72
2021/12/19 12:05:41;;;;;;;18.45;4.55;;;7.80;99.90;;;;;;5095163;28;20120;-71
2021/12/19 12:08:08;;;;;;;19.55;4.18;;;7.90;99.90;;;;;;5094905;28;20365;-71
2021/12/19 12:10:49;;;;;;;14.05;4.10;;;7.90;99.90;;;;;;5095330;28;20051;-72
2021/12/19 12:13:34;;;;;;;14.35;4.22;;;7.80;99.90;;;;;;5095865;28;20040;-72
2021/12/19 12:16:12;;;;;;;16.17;3.97;;;7.90;99.90;;;;;;5095795;28;20096;-72
2021/12/19 12:18:40;;;;;;;12.52;3.50;;;7.90;99.90;;;;;;5095165;28;20053;-71
2021/12/19 12:21:18;;;;;;;11.45;4.22;;;7.90;99.90;;;;;;5095563;28;20438;-70
2021/12/19 12:24:00;;;;;;;16.75;4.35;;;7.80;99.90;;;;;;5094417;28;20059;-71
2021/12/19 12:26:37;;;;;;;15.57;4.43;;;7.80;99.90;;;;;;5095757;28;20048;-71
2021/12/19 12:29:04;;;;;;;11.20;3.40;;;7.90;99.90;;;;;;5095026;28;20086;-71
2021/12/19 12:31:30;;;;;;;14.82;3.67;;;7.90;99.90;;;;;;5094902;28;20044;-71
2021/12/19 12:33:56;;;;;;;14.45;3.58;;;7.90;99.90;;;;;;5094453;28;20032;-71
2021/12/19 12:36:23;;;;;;;13.73;4.00;;;7.90;99.90;;;;;;5095485;28;20097;-71
2021/12/19 12:38:51;;;;;;;12.57;4.15;;;7.90;99.90;;;;;;5094542;28;20101;-71
2021/12/19 12:41:29;;;;;;;17.75;3.40;;;7.90;99.90;;;;;;5095422;28;20050;-71
2021/12/19 12:44:09;;;;;;;14.77;3.45;;;7.90;99.90;;;;;;5095398;28;20044;-71
2021/12/19 12:46:34;;;;;;;13.95;3.80;;;7.90;99.90;;;;;;5095222;28;20310;-72
2021/12/19 12:49:05;;;;;;;13.90;3.78;;;7.90;99.90;;;;;;5093317;28;20354;-71
2021/12/19 12:51:41;;;;;;;23.85;4.28;;;7.90;99.90;;;;;;5095348;28;20093;-71
2021/12/19 12:54:10;;;;;;;11.38;3.97;;;7.90;99.90;;;;;;5095346;28;20047;-71
2021/12/19 12:56:44;;;;;;;11.70;3.83;;;7.90;99.90;;;;;;5095307;28;20035;-71
2021/12/19 12:59:10;;;;;;;13.52;3.30;;;8.00;99.90;;;;;;5093645;28;20044;-71
2021/12/19 13:01:42;;;;;;;15.13;3.40;;;8.00;99.90;;;;;;5095121;28;20073;-72
2021/12/19 13:04:20;;;;;;;10.57;3.47;;;8.00;99.90;;;;;;5094882;28;20051;-71
2021/12/19 13:07:06;;;;;;;16.02;4.10;;;8.00;99.90;;;;;;5094947;28;20044;-71
2021/12/19 13:09:51;;;;;;;11.07;3.20;;;8.00;99.90;;;;;;5094433;28;20032;-71
2021/12/19 13:12:25;;;;;;;13.73;3.80;;;8.00;99.90;;;;;;5094773;28;20040;-71
2021/12/19 13:14:55;;;;;;;27.70;23.00;;;8.10;99.90;;;;;;5094450;28;20412;-71
2021/12/19 13:17:25;;;;;;;18.77;11.82;;;8.00;99.90;;;;;;5094104;28;20044;-72
2021/12/19 13:19:58;;;;;;;16.08;3.50;;;8.10;99.90;;;;;;5094284;28;20036;-71
2021/12/19 13:22:25;;;;;;;15.70;3.95;;;8.00;99.90;;;;;;5094084;28;20075;-71
2021/12/19 13:24:53;;;;;;;11.93;3.30;;;8.00;99.90;;;;;;5094124;28;20093;-72
2021/12/19 13:27:22;;;;;;;12.70;3.60;;;8.00;99.90;;;;;;5093688;28;20331;-72
2021/12/19 13:29:58;;;;;;;15.32;3.75;;;8.00;99.90;;;;;;5093875;28;20358;-71
2021/12/19 13:32:34;;;;;;;15.25;3.78;;;8.00;99.90;;;;;;5094262;28;20064;-71
2021/12/19 13:35:01;;;;;;;14.57;3.90;;;8.00;99.90;;;;;;5094359;28;20086;-71
2021/12/19 13:37:32;;;;;;;10.48;3.33;;;8.00;99.90;;;;;;5094301;28;20083;-71
2021/12/19 13:40:06;;;;;;;14.55;4.60;;;8.00;99.90;;;;;;5094012;28;20044;-71
2021/12/19 13:42:38;;;;;;;19.95;5.03;;;8.00;99.90;;;;;;5094403;28;20441;-71
2021/12/19 13:45:26;;;;;;;12.38;3.90;;;8.00;99.90;;;;;;5094011;28;20047;-71
2021/12/19 13:47:52;;;;;;;12.23;3.15;;;8.00;99.90;;;;;;5092326;28;20039;-71
2021/12/19 13:50:18;;;;;;;9.57;2.92;;;8.00;99.90;;;;;;5093749;28;20040;-71
2021/12/19 13:52:44;;;;;;;14.23;3.65;;;8.00;99.90;;;;;;5094075;28;20352;-71
2021/12/19 13:55:14;;;;;;;14.00;4.07;;;8.00;99.90;;;;;;5094337;28;20097;-71
2021/12/19 13:57:40;;;;;;;16.35;3.22;;;8.00;99.90;;;;;;5093652;28;20048;-71